Decoded Metar for KAEL (ALBERT LEA in MN, USA) (IATA:AEL) | Meteo·Mobile Aviation Weather
aviador You're here:

KAEL Decoded Metar

ALBERT LEA in MN, USA
Report Time2018-08-22 06:35:00
UTC Time2018-08-22 06:57:30
Flight Rules vfr VFR
WindCalm
Visibility9999 m
Phenomena:N/A
Clouds:N/A
CeilingNone
Temp13°C (ISA 0)
Dew Point13°C (100% RH)
QNH1023 hPa
Density Alt1,184 ft
Elevation1,257 ft
Report Wrong Elevation
Raw Report
KAEL 220635Z AUTO 00000KT 7SM CLR 13/13 A3020 RMK AO2=

Extra information for KAEL:More info

Metar Taf Metar & Taf Last 4 Metars F.Rules Stats Wind Profile Meteogram Temp Stats Airport Information Weather charts Add Link Nearby VenuesMetar ALERT Operation Metar Decoded Social comments

AIRNAV info for KAEL